createdAt,value
2019-02-24T00:03:29.571Z,55.50
2019-02-24T00:08:31.133Z,55.44
2019-02-24T00:13:32.815Z,55.48
2019-02-24T00:18:34.470Z,55.39
2019-02-24T00:23:36.044Z,55.18
2019-02-24T00:28:37.596Z,55.25
2019-02-24T00:33:39.156Z,54.69
2019-02-24T00:38:40.726Z,54.64
2019-02-24T00:43:42.349Z,54.63
2019-02-24T00:48:43.904Z,54.63
2019-02-24T00:53:45.476Z,54.65
2019-02-24T00:58:47.048Z,54.76
2019-02-24T01:03:48.593Z,54.82
2019-02-24T01:08:50.144Z,54.86
2019-02-24T01:13:51.703Z,54.80
2019-02-24T01:18:53.391Z,54.84
2019-02-24T01:23:54.961Z,54.96
2019-02-24T01:28:56.535Z,55.02
2019-02-24T01:33:58.118Z,55.05
2019-02-24T01:38:59.692Z,55.03
2019-02-24T01:44:01.381Z,55.00
2019-02-24T01:49:03.080Z,55.00
2019-02-24T01:54:04.656Z,54.96
2019-02-24T01:59:06.324Z,54.96
2019-02-24T02:04:07.868Z,54.97
2019-02-24T02:09:09.581Z,55.05
2019-02-24T02:14:11.130Z,55.04
2019-02-24T02:19:12.684Z,55.02
2019-02-24T02:24:14.470Z,55.09
2019-02-24T02:29:17.363Z,55.05
2019-02-24T02:34:18.911Z,55.09
2019-02-24T02:39:20.484Z,55.22
2019-02-24T02:44:22.045Z,55.18
2019-02-24T02:49:23.614Z,55.16
2019-02-24T02:54:25.176Z,55.17
2019-02-24T02:59:26.828Z,55.08
2019-02-24T03:04:28.381Z,55.07
2019-02-24T03:09:29.950Z,55.15
2019-02-24T03:14:31.540Z,55.11
2019-02-24T03:19:33.146Z,55.17
2019-02-24T03:24:34.718Z,55.21
2019-02-24T03:29:36.334Z,55.15
2019-02-24T03:34:38.881Z,55.26
2019-02-24T03:39:40.432Z,55.44
2019-02-24T03:44:41.995Z,55.38
2019-02-24T03:49:43.557Z,55.39
2019-02-24T03:54:45.227Z,55.39
2019-02-24T03:59:46.777Z,55.40
2019-02-24T04:04:48.466Z,55.46
2019-02-24T04:09:50.217Z,55.43
2019-02-24T04:14:51.770Z,55.43
2019-02-24T04:19:53.316Z,55.43
2019-02-24T04:24:54.890Z,55.43
2019-02-24T04:29:56.553Z,55.44
2019-02-24T04:34:58.115Z,55.51
2019-02-24T04:39:59.697Z,55.71
2019-02-24T04:45:01.267Z,55.85
2019-02-24T04:50:03.006Z,55.73
2019-02-24T04:55:04.812Z,55.80
2019-02-24T05:00:06.562Z,55.71
2019-02-24T05:05:08.111Z,55.69
2019-02-24T05:10:09.763Z,55.68
2019-02-24T05:15:11.422Z,55.64
2019-02-24T05:20:12.979Z,55.62
2019-02-24T05:25:14.543Z,55.68
2019-02-24T05:30:16.196Z,55.90
2019-02-24T05:35:17.768Z,55.87
2019-02-24T05:40:19.317Z,55.71
2019-02-24T05:45:20.864Z,55.67
2019-02-24T05:50:22.456Z,55.82
2019-02-24T05:55:24.115Z,55.78
2019-02-24T06:00:25.679Z,55.68
2019-02-24T06:05:27.234Z,55.85
2019-02-24T06:10:28.811Z,56.01
2019-02-24T06:15:30.374Z,55.66
2019-02-24T06:20:31.926Z,55.57
2019-02-24T06:25:33.499Z,55.45
2019-02-24T06:30:35.067Z,55.28
2019-02-24T06:35:36.639Z,55.18
2019-02-24T06:40:38.217Z,55.10
2019-02-24T06:45:39.771Z,55.18
2019-02-24T06:50:56.752Z,55.13
2019-02-24T06:55:58.323Z,55.08
2019-02-24T07:00:59.973Z,54.93
2019-02-24T07:06:01.535Z,55.01
2019-02-24T07:11:03.129Z,55.01
2019-02-24T07:16:04.687Z,54.77
2019-02-24T07:21:06.360Z,54.77
2019-02-24T07:26:07.911Z,54.67
2019-02-24T07:31:09.477Z,54.61
2019-02-24T07:36:11.047Z,54.46
2019-02-24T07:41:12.724Z,54.11
2019-02-24T07:46:14.305Z,53.97
2019-02-24T07:51:15.875Z,53.87
2019-02-24T07:56:17.456Z,53.75
2019-02-24T08:01:19.167Z,53.66
2019-02-24T08:06:20.728Z,53.51
2019-02-24T08:11:22.416Z,53.25
2019-02-24T08:16:23.962Z,53.18
2019-02-24T08:21:25.972Z,53.12
2019-02-24T08:26:27.548Z,53.09
2019-02-24T08:31:29.128Z,53.01
2019-02-24T08:36:30.683Z,52.93
2019-02-24T08:41:32.237Z,52.83
2019-02-24T08:46:33.761Z,52.66
2019-02-24T08:51:35.312Z,52.67
2019-02-24T08:56:36.854Z,52.54
2019-02-24T09:01:38.407Z,52.42
2019-02-24T09:06:39.986Z,52.42
2019-02-24T09:11:41.600Z,52.29
2019-02-24T09:16:43.178Z,51.96
2019-02-24T09:21:44.731Z,51.74
2019-02-24T09:26:46.305Z,51.66
2019-02-24T09:31:47.882Z,51.57
2019-02-24T09:36:49.431Z,51.48
2019-02-24T09:41:50.996Z,51.20
2019-02-24T09:46:52.591Z,50.96
2019-02-24T09:51:54.142Z,50.70
2019-02-24T09:56:55.725Z,50.53
2019-02-24T10:01:57.288Z,50.39
2019-02-24T10:06:58.866Z,50.02
2019-02-24T10:12:00.541Z,49.75
2019-02-24T10:17:02.217Z,49.64
2019-02-24T10:22:03.913Z,49.51
2019-02-24T10:27:05.483Z,49.47
2019-02-24T10:32:07.051Z,49.44
2019-02-24T10:37:08.706Z,49.28
2019-02-24T10:42:10.390Z,48.96
2019-02-24T10:47:11.962Z,48.48
2019-02-24T10:52:13.537Z,48.32
2019-02-24T10:57:15.101Z,48.17
2019-02-24T11:02:16.673Z,48.32
2019-02-24T11:07:18.232Z,48.75
2019-02-24T11:12:19.912Z,48.93
2019-02-24T11:17:21.654Z,49.20
2019-02-24T11:22:23.208Z,49.25
2019-02-24T11:27:24.945Z,49.05
2019-02-24T11:32:26.532Z,48.89
2019-02-24T11:37:28.269Z,48.60
2019-02-24T11:42:29.838Z,48.00
2019-02-24T11:47:31.400Z,42.09
2019-02-24T11:52:32.961Z,30.62
2019-02-24T11:57:34.614Z,27.42
2019-02-24T12:02:36.295Z,26.23
2019-02-24T12:07:37.853Z,26.14
2019-02-24T12:12:39.520Z,29.02
2019-02-24T12:17:41.187Z,29.02
2019-02-24T12:22:42.719Z,27.59
2019-02-24T12:27:44.293Z,27.10
2019-02-24T12:32:45.874Z,26.99
2019-02-24T12:37:47.557Z,27.19
2019-02-24T12:42:49.249Z,27.35
2019-02-24T12:47:50.842Z,27.69
2019-02-24T12:52:52.488Z,28.36
2019-02-24T12:57:54.053Z,29.02
2019-02-24T13:02:55.681Z,29.05
2019-02-24T13:07:58.069Z,29.22
2019-02-24T13:12:59.808Z,29.22
2019-02-24T13:18:01.520Z,29.35
2019-02-24T13:23:03.211Z,29.19
2019-02-24T13:28:05.152Z,29.21
2019-02-24T13:33:07.548Z,29.55
2019-02-24T13:38:09.462Z,29.33
2019-02-24T13:43:11.274Z,29.51
2019-02-24T13:48:12.971Z,30.28
2019-02-24T13:53:14.589Z,33.94
2019-02-24T13:58:16.230Z,34.34
2019-02-24T14:03:17.915Z,34.54
2019-02-24T14:08:19.684Z,33.08
2019-02-24T14:13:21.381Z,32.29
2019-02-24T14:18:23.010Z,33.58
2019-02-24T14:23:24.678Z,36.71
2019-02-24T14:28:26.268Z,37.73
2019-02-24T14:33:29.162Z,37.61
2019-02-24T14:38:30.864Z,37.39
2019-02-24T14:43:32.424Z,37.88
2019-02-24T14:48:34.132Z,37.97
2019-02-24T14:53:35.872Z,38.20
2019-02-24T14:58:37.565Z,38.44
2019-02-24T15:03:39.170Z,38.66
2019-02-24T15:08:40.751Z,38.58
2019-02-24T15:13:42.309Z,38.40
2019-02-24T15:18:43.910Z,38.19
2019-02-24T15:23:45.464Z,37.87
2019-02-24T15:28:47.045Z,37.39
2019-02-24T15:33:48.619Z,37.09
2019-02-24T15:38:50.295Z,37.10
2019-02-24T15:43:54.430Z,37.05
2019-02-24T15:48:55.987Z,36.76
2019-02-24T15:53:57.693Z,36.40
2019-02-24T15:58:59.254Z,36.12
2019-02-24T16:04:00.802Z,35.92
2019-02-24T16:09:02.366Z,35.84
2019-02-24T16:14:04.071Z,35.71
2019-02-24T16:19:05.704Z,35.48
2019-02-24T16:24:07.403Z,35.35
2019-02-24T16:29:08.987Z,35.43
2019-02-24T16:34:10.572Z,35.67
2019-02-24T16:39:12.126Z,36.02
2019-02-24T16:44:13.824Z,36.57
2019-02-24T16:49:15.379Z,36.93
2019-02-24T16:54:16.974Z,37.22
2019-02-24T16:59:18.668Z,37.49
2019-02-24T17:04:20.209Z,37.71
2019-02-24T17:09:21.828Z,37.78
2019-02-24T17:14:24.872Z,37.82
2019-02-24T17:19:26.565Z,37.85
2019-02-24T17:24:28.147Z,37.94
2019-02-24T17:34:47.853Z,38.06
2019-02-24T17:39:49.471Z,38.29
2019-02-24T17:44:51.088Z,38.44
2019-02-24T17:49:52.677Z,38.52
2019-02-24T17:54:54.277Z,38.71
2019-02-24T17:59:55.957Z,38.90
2019-02-24T18:04:57.632Z,39.05
2019-02-24T18:09:59.213Z,39.17
2019-02-24T18:15:00.942Z,39.37
2019-02-24T18:20:02.759Z,39.44
2019-02-24T18:25:05.696Z,39.38
2019-02-24T18:30:13.948Z,39.46
2019-02-24T18:35:15.538Z,39.65
2019-02-24T18:40:17.230Z,39.83
2019-02-24T18:45:18.953Z,40.08
2019-02-24T18:50:20.535Z,40.21
2019-02-24T18:55:22.210Z,40.20
2019-02-24T19:00:23.886Z,40.23
2019-02-24T19:05:25.464Z,40.51
2019-02-24T19:10:27.430Z,40.40
2019-02-24T19:15:29.029Z,40.33
2019-02-24T19:20:30.757Z,40.30
2019-02-24T19:25:32.427Z,40.53
2019-02-24T19:30:34.155Z,40.65
2019-02-24T19:35:35.881Z,40.67
2019-02-24T19:40:37.481Z,40.37
2019-02-24T19:45:39.059Z,40.58
2019-02-24T19:50:40.633Z,40.76
2019-02-24T19:55:42.322Z,40.83
2019-02-24T20:00:44.017Z,40.97
2019-02-24T20:05:45.611Z,41.01
2019-02-24T20:10:47.196Z,40.98
2019-02-24T20:15:48.791Z,41.05
2019-02-24T20:20:50.401Z,41.07
2019-02-24T20:25:51.988Z,41.35
2019-02-24T20:30:53.570Z,41.55
2019-02-24T20:35:55.156Z,41.72
2019-02-24T20:40:56.724Z,41.94
2019-02-24T20:45:58.337Z,42.05
2019-02-24T20:50:59.962Z,42.20
2019-02-24T20:56:01.585Z,42.16
2019-02-24T21:01:05.365Z,42.14
2019-02-24T21:06:07.064Z,42.16
2019-02-24T21:11:08.676Z,42.26
2019-02-24T21:16:10.250Z,42.36
2019-02-24T21:21:11.833Z,42.44
2019-02-24T21:26:13.579Z,42.43
2019-02-24T21:31:15.269Z,42.54
2019-02-24T21:36:16.981Z,42.73
2019-02-24T21:41:18.574Z,42.64
2019-02-24T21:46:20.182Z,42.60
2019-02-24T21:51:21.961Z,42.77
2019-02-24T21:56:23.554Z,42.91
2019-02-24T22:01:25.247Z,42.72
2019-02-24T22:06:26.838Z,42.92
2019-02-24T22:11:28.432Z,43.10
2019-02-24T22:16:30.006Z,43.35
2019-02-24T22:21:31.589Z,43.69
2019-02-24T22:26:33.183Z,43.96
2019-02-24T22:31:34.767Z,44.11
2019-02-24T22:36:36.323Z,44.22
2019-02-24T22:41:37.903Z,44.36
2019-02-24T22:46:39.494Z,44.68
2019-02-24T22:51:41.110Z,44.70
2019-02-24T22:56:42.833Z,44.69
2019-02-24T23:01:45.065Z,44.77
2019-02-24T23:06:46.653Z,44.99
2019-02-24T23:11:48.383Z,45.24
2019-02-24T23:16:50.049Z,45.19
2019-02-24T23:21:51.796Z,45.27
2019-02-24T23:26:53.392Z,45.38
2019-02-24T23:31:55.161Z,45.38
2019-02-24T23:36:56.704Z,45.33
2019-02-24T23:41:58.388Z,45.64
2019-02-24T23:47:00.195Z,45.78
2019-02-24T23:52:01.780Z,45.89
2019-02-24T23:57:03.488Z,46.12
